createdAt,value
2022-08-25T00:00:14.454Z,60.96
2022-08-25T00:01:14.462Z,61.23
2022-08-25T00:02:14.497Z,62.15
2022-08-25T00:03:14.470Z,61.36
2022-08-25T00:04:14.571Z,59.77
2022-08-25T00:05:14.535Z,62.05
2022-08-25T00:06:14.479Z,63.05
2022-08-25T00:07:14.489Z,62.75
2022-08-25T00:08:14.487Z,61.96
2022-08-25T00:09:14.496Z,62.55
2022-08-25T00:10:14.498Z,62.85
2022-08-25T00:11:14.503Z,62.85
2022-08-25T00:12:14.506Z,63.65
2022-08-25T00:13:14.511Z,64.34
2022-08-25T00:14:14.515Z,63.05
2022-08-25T00:15:14.523Z,63.85
2022-08-25T00:16:14.591Z,63.35
2022-08-25T00:17:14.532Z,63.35
2022-08-25T00:18:19.589Z,64.45
2022-08-25T00:19:14.536Z,63.75
2022-08-25T00:20:14.542Z,63.25
2022-08-25T00:21:14.546Z,62.85
2022-08-25T00:22:14.549Z,64.18
2022-08-25T00:23:14.557Z,64.28
2022-08-25T00:24:14.560Z,64.37
2022-08-25T00:25:14.564Z,62.38
2022-08-25T00:26:14.567Z,64.28
2022-08-25T00:27:14.571Z,64.07
2022-08-25T00:28:14.575Z,63.38
2022-08-25T00:29:14.584Z,63.58
2022-08-25T00:30:14.587Z,62.88
2022-08-25T00:31:14.673Z,63.11
2022-08-25T00:32:14.599Z,63.01
2022-08-25T00:33:14.602Z,63.41
2022-08-25T00:34:14.600Z,64.11
2022-08-25T00:35:14.607Z,65.20
2022-08-25T00:36:14.617Z,62.21
2022-08-25T00:37:14.621Z,63.31
2022-08-25T00:38:14.617Z,64.61
2022-08-25T00:39:14.621Z,65.41
2022-08-25T00:40:14.703Z,64.44
2022-08-25T00:41:14.633Z,63.24
2022-08-25T00:42:16.225Z,63.04
2022-08-25T00:43:14.640Z,61.15
2022-08-25T00:44:14.646Z,63.04
2022-08-25T00:45:14.650Z,62.07
2022-08-25T00:46:14.706Z,62.67
2022-08-25T00:47:14.659Z,63.57
2022-08-25T00:48:14.660Z,62.40
2022-08-25T00:49:20.900Z,61.98
2022-08-25T00:50:14.667Z,63.00
2022-08-25T00:51:14.678Z,62.30
2022-08-25T00:52:14.677Z,63.33
2022-08-25T00:53:14.683Z,63.20
2022-08-25T00:54:14.683Z,63.33
2022-08-25T00:55:14.690Z,63.33
2022-08-25T00:56:14.693Z,63.23
2022-08-25T00:57:14.699Z,64.23
2022-08-25T00:58:14.714Z,64.16
2022-08-25T00:59:14.705Z,63.66
2022-08-25T01:00:14.707Z,64.29
2022-08-25T01:01:14.764Z,63.69
2022-08-25T01:02:14.768Z,64.69
2022-08-25T01:03:14.728Z,64.32
2022-08-25T01:04:14.722Z,65.63
2022-08-25T01:05:14.728Z,64.62
2022-08-25T01:06:14.730Z,64.95
2022-08-25T01:07:17.862Z,65.55
2022-08-25T01:08:16.264Z,65.99
2022-08-25T01:09:14.746Z,65.69
2022-08-25T01:10:14.744Z,65.69
2022-08-25T01:11:14.749Z,65.62
2022-08-25T01:12:14.752Z,66.72
2022-08-25T01:13:16.496Z,67.42
2022-08-25T01:14:14.758Z,68.22
2022-08-25T01:15:14.766Z,68.32
2022-08-25T01:16:14.821Z,68.52
2022-08-25T01:17:14.770Z,67.42
2022-08-25T01:18:14.773Z,68.32
2022-08-25T01:19:15.411Z,68.42
2022-08-25T01:20:14.786Z,68.82
2022-08-25T01:21:14.797Z,69.06
2022-08-25T01:22:14.791Z,69.26
2022-08-25T01:23:14.795Z,68.96
2022-08-25T01:24:14.795Z,69.56
2022-08-25T01:25:14.800Z,68.96
2022-08-25T01:26:14.803Z,69.56
2022-08-25T01:27:14.809Z,69.69
2022-08-25T01:28:14.812Z,70.39
2022-08-25T01:29:14.814Z,70.29
2022-08-25T01:30:14.815Z,69.79
2022-08-25T01:31:24.076Z,69.29
2022-08-25T01:32:14.831Z,69.69
2022-08-25T01:33:14.827Z,69.59
2022-08-25T01:34:14.827Z,69.59
2022-08-25T01:35:14.833Z,68.89
2022-08-25T01:36:14.836Z,70.09
2022-08-25T01:37:14.840Z,69.59
2022-08-25T01:38:14.840Z,71.13
2022-08-25T01:39:14.855Z,71.13
2022-08-25T01:40:14.924Z,70.63
2022-08-25T01:41:14.853Z,70.73
2022-08-25T01:42:14.863Z,71.56
2022-08-25T01:43:14.872Z,72.06
2022-08-25T01:44:16.108Z,72.67
2022-08-25T01:45:14.866Z,72.06
2022-08-25T01:46:14.922Z,72.17
2022-08-25T01:47:14.871Z,72.20
2022-08-25T01:48:14.870Z,72.00
2022-08-25T01:49:14.880Z,71.80
2022-08-25T01:50:14.876Z,72.40
2022-08-25T01:51:14.884Z,71.50
2022-08-25T01:52:14.885Z,72.40
2022-08-25T01:53:14.888Z,71.70
2022-08-25T01:54:14.891Z,71.60
2022-08-25T01:55:14.893Z,71.70
2022-08-25T01:56:14.896Z,72.00
2022-08-25T01:57:14.898Z,72.10
2022-08-25T01:58:14.900Z,72.44
2022-08-25T01:59:14.904Z,72.33
2022-08-25T02:00:14.907Z,72.74
2022-08-25T02:01:14.963Z,72.53
2022-08-25T02:02:14.971Z,72.64
2022-08-25T02:03:18.906Z,72.53
2022-08-25T02:04:14.917Z,72.74
2022-08-25T02:05:14.924Z,72.74
2022-08-25T02:06:14.922Z,72.53
2022-08-25T02:07:14.926Z,72.84
2022-08-25T02:08:14.929Z,73.14
2022-08-25T02:09:14.936Z,74.55
2022-08-25T02:10:14.938Z,74.74
2022-08-25T02:11:14.940Z,73.84
2022-08-25T02:12:14.943Z,73.88
2022-08-25T02:13:14.954Z,73.54
2022-08-25T02:14:14.948Z,73.64
2022-08-25T02:15:14.948Z,73.58
2022-08-25T02:16:15.040Z,74.08
2022-08-25T02:17:14.958Z,73.98
2022-08-25T02:18:14.961Z,73.68
2022-08-25T02:19:14.959Z,74.18
2022-08-25T02:20:14.965Z,74.08
2022-08-25T02:21:14.972Z,74.08
2022-08-25T02:22:14.969Z,74.78
2022-08-25T02:23:14.971Z,74.48
2022-08-25T02:24:14.982Z,74.41
2022-08-25T02:25:14.976Z,74.92
2022-08-25T02:26:14.983Z,74.68
2022-08-25T02:27:14.983Z,74.28
2022-08-25T02:28:14.983Z,74.41
2022-08-25T02:29:14.987Z,74.62
2022-08-25T02:30:14.992Z,74.21
2022-08-25T02:31:15.073Z,74.92
2022-08-25T02:32:14.995Z,74.72
2022-08-25T02:33:14.997Z,75.32
2022-08-25T02:34:15.002Z,75.42
2022-08-25T02:35:15.002Z,74.72
2022-08-25T02:36:15.007Z,75.02
2022-08-25T02:37:15.009Z,75.42
2022-08-25T02:38:15.010Z,74.82
2022-08-25T02:39:15.010Z,74.75
2022-08-25T02:40:15.053Z,75.52
2022-08-25T02:41:15.018Z,74.21
2022-08-25T02:42:15.030Z,74.95
2022-08-25T02:43:15.027Z,74.72
2022-08-25T02:44:15.034Z,74.72
2022-08-25T02:45:15.026Z,75.02
2022-08-25T02:46:15.091Z,74.72
2022-08-25T02:47:15.034Z,74.41
2022-08-25T02:48:15.035Z,74.21
2022-08-25T02:49:15.038Z,74.82
2022-08-25T02:50:15.039Z,74.75
2022-08-25T02:51:15.041Z,74.85
2022-08-25T02:52:15.049Z,75.86
2022-08-25T02:53:15.048Z,75.96
2022-08-25T02:54:15.049Z,75.70
2022-08-25T02:55:15.050Z,76.30
2022-08-25T02:56:15.055Z,75.99
2022-08-25T02:57:15.056Z,76.90
2022-08-25T02:58:15.058Z,77.00
2022-08-25T02:59:15.060Z,76.94
2022-08-25T03:00:15.071Z,77.34
2022-08-25T03:01:15.176Z,77.04
2022-08-25T03:02:15.098Z,77.34
2022-08-25T03:03:15.069Z,77.24
2022-08-25T03:04:15.075Z,78.15
2022-08-25T03:05:15.160Z,78.25
2022-08-25T03:06:15.078Z,77.75
2022-08-25T03:07:15.077Z,77.75
2022-08-25T03:08:15.082Z,78.05
2022-08-25T03:09:15.087Z,78.05
2022-08-25T03:10:15.085Z,77.55
2022-08-25T03:11:15.090Z,77.75
2022-08-25T03:12:15.442Z,77.95
2022-08-25T03:13:15.094Z,77.34
2022-08-25T03:14:15.092Z,76.74
2022-08-25T03:15:15.114Z,77.31
2022-08-25T03:16:15.190Z,76.50
2022-08-25T03:17:15.099Z,76.50
2022-08-25T03:18:15.101Z,75.59
2022-08-25T03:19:15.103Z,76.40
2022-08-25T03:20:15.115Z,76.40
2022-08-25T03:21:15.778Z,75.59
2022-08-25T03:22:15.112Z,75.83
2022-08-25T03:23:15.114Z,76.74
2022-08-25T03:24:15.114Z,76.14
2022-08-25T03:25:15.121Z,76.74
2022-08-25T03:26:15.138Z,76.14
2022-08-25T03:27:15.123Z,76.54
2022-08-25T03:28:15.127Z,76.23
2022-08-25T03:29:15.127Z,76.23
2022-08-25T03:30:15.131Z,76.23
2022-08-25T03:31:15.162Z,76.94
2022-08-25T03:32:15.142Z,76.74
2022-08-25T03:33:15.134Z,76.94
2022-08-25T03:34:15.140Z,77.55
2022-08-25T03:35:15.141Z,77.55
2022-08-25T03:36:15.140Z,77.38
2022-08-25T03:37:15.143Z,76.43
2022-08-25T03:38:15.148Z,77.98
2022-08-25T03:39:15.151Z,77.17
2022-08-25T03:40:16.427Z,78.19
2022-08-25T03:41:15.156Z,77.78
2022-08-25T03:42:15.152Z,78.39
2022-08-25T03:43:15.154Z,77.58
2022-08-25T03:44:15.157Z,77.78
2022-08-25T03:45:15.159Z,78.05
2022-08-25T03:46:15.241Z,77.84
2022-08-25T03:47:15.162Z,77.75
2022-08-25T03:48:15.170Z,77.34
2022-08-25T03:49:15.167Z,77.84
2022-08-25T03:50:15.172Z,77.24
2022-08-25T03:51:15.170Z,76.74
2022-08-25T03:52:15.175Z,76.74
2022-08-25T03:53:15.176Z,77.08
2022-08-25T03:54:15.175Z,76.77
2022-08-25T03:55:15.183Z,77.08
2022-08-25T03:56:15.186Z,77.58
2022-08-25T03:57:15.185Z,77.48
2022-08-25T03:58:15.213Z,78.08
2022-08-25T03:59:15.186Z,78.79
2022-08-25T04:00:15.191Z,78.83
2022-08-25T04:01:15.286Z,78.99
2022-08-25T04:02:15.227Z,79.19
2022-08-25T04:03:15.194Z,79.53
2022-08-25T04:04:15.195Z,78.42
2022-08-25T04:05:15.899Z,79.03
2022-08-25T04:06:15.201Z,78.63
2022-08-25T04:07:15.212Z,78.63
2022-08-25T04:08:15.206Z,78.22
2022-08-25T04:09:15.208Z,77.82
2022-08-25T04:10:15.208Z,78.22
2022-08-25T04:11:15.209Z,78.32
2022-08-25T04:12:15.766Z,78.52
2022-08-25T04:13:15.213Z,79.33
2022-08-25T04:14:16.487Z,78.52
2022-08-25T04:15:15.224Z,78.02
2022-08-25T04:16:15.267Z,77.92
2022-08-25T04:17:15.221Z,77.82
2022-08-25T04:18:15.222Z,78.32
2022-08-25T04:19:15.224Z,78.02
2022-08-25T04:20:15.225Z,78.92
2022-08-25T04:21:15.227Z,79.43
2022-08-25T04:22:15.231Z,79.77
2022-08-25T04:23:15.239Z,80.47
2022-08-25T04:24:15.235Z,80.47
2022-08-25T04:25:15.233Z,81.18
2022-08-25T04:26:15.240Z,80.98
2022-08-25T04:27:15.239Z,81.28
2022-08-25T04:28:15.240Z,81.38
2022-08-25T04:29:15.240Z,81.32
2022-08-25T04:30:15.243Z,82.13
2022-08-25T04:31:15.383Z,82.43
2022-08-25T04:32:15.245Z,81.42
2022-08-25T04:33:15.249Z,82.29
2022-08-25T04:34:30.555Z,81.93
2022-08-25T04:35:15.250Z,81.79
2022-08-25T04:36:15.255Z,80.98
2022-08-25T04:37:15.256Z,81.28
2022-08-25T04:38:15.257Z,81.59
2022-08-25T04:39:15.257Z,81.59
2022-08-25T04:40:15.298Z,81.48
2022-08-25T04:41:15.261Z,80.88
2022-08-25T04:42:15.265Z,81.18
2022-08-25T04:43:15.265Z,80.88
2022-08-25T04:44:15.268Z,81.18
2022-08-25T04:45:15.268Z,81.28
2022-08-25T04:46:20.113Z,81.24
2022-08-25T04:47:15.273Z,81.04
2022-08-25T04:48:15.275Z,81.38
2022-08-25T04:49:15.274Z,81.38
2022-08-25T04:50:15.274Z,81.45
2022-08-25T04:51:15.280Z,81.28
2022-08-25T04:52:15.279Z,81.68
2022-08-25T04:53:15.284Z,82.39
2022-08-25T04:54:15.284Z,82.25
2022-08-25T04:55:15.286Z,82.05
2022-08-25T04:56:15.286Z,81.95
2022-08-25T04:57:15.330Z,81.95
2022-08-25T04:58:16.700Z,82.15
2022-08-25T04:59:15.291Z,82.35
2022-08-25T05:00:15.309Z,81.24
2022-08-25T05:01:15.318Z,82.15
2022-08-25T05:02:15.296Z,81.65
2022-08-25T05:03:15.300Z,81.15
2022-08-25T05:04:27.604Z,81.15
2022-08-25T05:05:15.302Z,81.24
2022-08-25T05:06:16.178Z,81.75
2022-08-25T05:07:15.306Z,82.15
2022-08-25T05:08:15.315Z,82.01
2022-08-25T05:09:15.308Z,82.05
2022-08-25T05:10:15.318Z,81.21
2022-08-25T05:11:15.877Z,82.05
2022-08-25T05:12:15.514Z,82.45
2022-08-25T05:13:15.319Z,82.31
2022-08-25T05:14:15.322Z,82.62
2022-08-25T05:15:15.325Z,82.51
2022-08-25T05:16:15.352Z,82.82
2022-08-25T05:17:15.317Z,82.92
2022-08-25T05:18:15.322Z,83.12
2022-08-25T05:19:15.321Z,83.12
2022-08-25T05:20:15.322Z,83.22
2022-08-25T05:21:15.324Z,83.72
2022-08-25T05:22:15.325Z,83.08
2022-08-25T05:23:15.329Z,82.68
2022-08-25T05:24:15.329Z,83.08
2022-08-25T05:25:15.335Z,82.98
2022-08-25T05:26:19.559Z,83.08
2022-08-25T05:27:15.333Z,82.88
2022-08-25T05:28:15.344Z,83.18
2022-08-25T05:29:15.338Z,82.84
2022-08-25T05:30:15.341Z,83.25
2022-08-25T05:31:15.422Z,83.95
2022-08-25T05:32:15.344Z,83.34
2022-08-25T05:33:15.346Z,82.74
2022-08-25T05:34:15.346Z,83.14
2022-08-25T05:35:15.352Z,83.61
2022-08-25T05:36:15.350Z,83.11
2022-08-25T05:37:15.349Z,83.00
2022-08-25T05:38:15.724Z,84.11
2022-08-25T05:39:15.354Z,83.11
2022-08-25T05:40:15.494Z,83.17
2022-08-25T05:41:15.358Z,83.17
2022-08-25T05:42:15.363Z,83.57
2022-08-25T05:43:15.359Z,82.66
2022-08-25T05:44:19.118Z,82.76
2022-08-25T05:45:20.276Z,83.17
2022-08-25T05:46:15.467Z,82.97
2022-08-25T05:47:15.367Z,83.97
2022-08-25T05:48:15.370Z,84.07
2022-08-25T05:49:15.370Z,84.37
2022-08-25T05:50:15.376Z,84.57
2022-08-25T05:51:15.376Z,84.83
2022-08-25T05:52:18.209Z,85.03
2022-08-25T05:53:15.380Z,85.14
2022-08-25T05:54:15.384Z,85.14
2022-08-25T05:55:15.382Z,84.74
2022-08-25T05:56:15.387Z,84.80
2022-08-25T05:57:15.394Z,84.83
2022-08-25T05:58:15.398Z,84.99
2022-08-25T05:59:15.393Z,84.80
2022-08-25T06:00:15.396Z,84.59
2022-08-25T06:01:15.464Z,84.49
2022-08-25T06:02:15.396Z,84.29
2022-08-25T06:03:15.464Z,84.29
2022-08-25T06:04:15.409Z,83.95
2022-08-25T06:05:15.399Z,84.05
2022-08-25T06:06:15.403Z,84.35
2022-08-25T06:07:15.409Z,84.05
2022-08-25T06:08:15.409Z,83.95
2022-08-25T06:09:15.408Z,84.05
2022-08-25T06:10:15.410Z,84.01
2022-08-25T06:11:15.411Z,84.21
2022-08-25T06:12:15.414Z,83.91
2022-08-25T06:13:15.415Z,84.01
2022-08-25T06:14:15.416Z,84.01
2022-08-25T06:15:15.420Z,83.91
2022-08-25T06:16:15.519Z,84.01
2022-08-25T06:17:15.424Z,83.61
2022-08-25T06:18:15.424Z,83.87
2022-08-25T06:19:15.430Z,83.87
2022-08-25T06:20:15.436Z,83.57
2022-08-25T06:21:15.431Z,83.77
2022-08-25T06:22:15.436Z,82.97
2022-08-25T06:23:15.440Z,83.37
2022-08-25T06:24:15.897Z,82.87
2022-08-25T06:25:15.445Z,83.17
2022-08-25T06:26:20.880Z,82.87
2022-08-25T06:27:15.447Z,83.37
2022-08-25T06:28:15.451Z,82.46
2022-08-25T06:29:15.473Z,82.57
2022-08-25T06:30:16.183Z,82.73
2022-08-25T06:31:15.511Z,82.03
2022-08-25T06:32:15.454Z,81.73
2022-08-25T06:33:15.461Z,82.03
2022-08-25T06:34:15.458Z,82.03
2022-08-25T06:35:15.464Z,82.12
2022-08-25T06:36:15.467Z,82.53
2022-08-25T06:37:15.473Z,82.63
2022-08-25T06:38:15.475Z,82.12
2022-08-25T06:39:15.479Z,82.32
2022-08-25T06:40:15.566Z,80.58
2022-08-25T06:41:15.479Z,81.79
2022-08-25T06:42:15.478Z,81.68
2022-08-25T06:43:15.482Z,81.68
2022-08-25T06:44:15.484Z,81.68
2022-08-25T06:45:15.488Z,80.88
2022-08-25T06:46:15.683Z,81.09
2022-08-25T06:47:15.529Z,80.65
2022-08-25T06:48:15.490Z,79.58
2022-08-25T06:49:15.500Z,78.44
2022-08-25T06:50:15.496Z,79.14
2022-08-25T06:51:15.503Z,78.84
2022-08-25T06:52:15.506Z,79.54
2022-08-25T06:53:15.508Z,78.44
2022-08-25T06:54:15.507Z,77.70
2022-08-25T06:55:15.508Z,78.00
2022-08-25T06:56:15.517Z,78.50
2022-08-25T06:57:15.515Z,78.60
2022-08-25T06:58:15.520Z,79.00
2022-08-25T06:59:15.519Z,78.70
2022-08-25T07:00:15.525Z,78.06
2022-08-25T07:01:20.185Z,77.17
2022-08-25T07:02:15.567Z,76.87
2022-08-25T07:03:15.574Z,77.83
2022-08-25T07:04:15.532Z,78.33
2022-08-25T07:05:27.296Z,78.93
2022-08-25T07:06:18.210Z,78.13
2022-08-25T07:07:15.542Z,75.99
2022-08-25T07:08:15.542Z,75.89
2022-08-25T07:09:15.546Z,76.79
2022-08-25T07:10:15.548Z,76.09
2022-08-25T07:11:16.369Z,76.59
2022-08-25T07:12:16.004Z,75.65
2022-08-25T07:13:15.558Z,75.85
2022-08-25T07:14:15.557Z,76.35
2022-08-25T07:15:20.449Z,75.82
2022-08-25T07:16:15.688Z,76.42
2022-08-25T07:17:15.577Z,74.92
2022-08-25T07:18:15.578Z,74.22
2022-08-25T07:19:15.579Z,75.12
2022-08-25T07:20:15.616Z,74.58
2022-08-25T07:21:15.579Z,74.49
2022-08-25T07:22:15.587Z,72.89
2022-08-25T07:23:15.587Z,71.99
2022-08-25T07:24:15.590Z,72.75
2022-08-25T07:25:15.701Z,73.75
2022-08-25T07:26:36.252Z,73.95
2022-08-25T07:27:15.601Z,73.75
2022-08-25T07:28:15.602Z,72.95
2022-08-25T07:29:15.607Z,72.62
2022-08-25T07:30:15.622Z,73.22
2022-08-25T07:31:15.660Z,73.11
2022-08-25T07:32:15.611Z,72.22
2022-08-25T07:33:15.627Z,71.78
2022-08-25T07:34:16.392Z,71.29
2022-08-25T07:35:15.666Z,71.29
2022-08-25T07:36:15.625Z,71.85
2022-08-25T07:37:27.535Z,72.05
2022-08-25T07:38:19.754Z,71.05
2022-08-25T07:39:15.636Z,70.65
2022-08-25T07:40:15.698Z,70.26
2022-08-25T07:41:15.644Z,70.62
2022-08-25T07:42:15.677Z,70.03
2022-08-25T07:43:15.652Z,68.93
2022-08-25T07:44:15.657Z,71.02
2022-08-25T07:45:20.474Z,70.62
2022-08-25T07:46:15.731Z,70.49
2022-08-25T07:47:15.666Z,70.59
2022-08-25T07:48:15.666Z,71.09
2022-08-25T07:49:16.696Z,71.78
2022-08-25T07:50:15.671Z,70.98
2022-08-25T07:51:15.723Z,70.39
2022-08-25T07:52:15.680Z,70.39
2022-08-25T07:53:15.683Z,69.20
2022-08-25T07:54:15.685Z,69.96
2022-08-25T07:55:17.907Z,70.06
2022-08-25T07:56:15.693Z,70.36
2022-08-25T07:57:15.698Z,69.36
2022-08-25T07:58:15.704Z,69.76
2022-08-25T07:59:15.708Z,70.06
2022-08-25T08:00:15.741Z,70.92
2022-08-25T08:01:15.724Z,70.32
2022-08-25T08:02:18.909Z,70.42
2022-08-25T08:03:35.247Z,68.63
2022-08-25T08:04:15.727Z,68.40
2022-08-25T08:05:15.728Z,68.30
2022-08-25T08:06:15.731Z,68.70
2022-08-25T08:07:15.736Z,66.61
2022-08-25T08:08:15.746Z,66.88
2022-08-25T08:09:15.746Z,66.78
2022-08-25T08:11:15.755Z,68.23
2022-08-25T08:12:15.754Z,66.74
2022-08-25T08:13:18.418Z,67.44
2022-08-25T08:14:15.764Z,68.04
2022-08-25T08:15:15.774Z,68.23
2022-08-25T08:16:15.852Z,70.32
2022-08-25T08:17:15.777Z,68.99
2022-08-25T08:18:15.784Z,68.10
2022-08-25T08:19:15.789Z,68.30
2022-08-25T08:20:15.797Z,68.70
2022-08-25T08:21:19.149Z,68.27
2022-08-25T08:22:15.803Z,66.18
2022-08-25T08:23:15.809Z,66.78
2022-08-25T08:24:40.679Z,64.40
2022-08-25T08:25:18.723Z,65.39
2022-08-25T08:26:15.829Z,65.75
2022-08-25T08:27:15.840Z,66.05
2022-08-25T08:28:15.852Z,67.54
2022-08-25T08:29:15.846Z,65.75
2022-08-25T08:30:15.859Z,64.56
2022-08-25T08:31:15.919Z,63.97
2022-08-25T08:32:15.870Z,65.36
2022-08-25T08:33:15.883Z,64.43
2022-08-25T08:34:15.877Z,64.93
2022-08-25T08:35:15.887Z,63.05
2022-08-25T08:36:15.891Z,65.03
2022-08-25T08:37:16.731Z,64.43
2022-08-25T08:38:20.869Z,64.63
2022-08-25T08:39:15.908Z,63.54
2022-08-25T08:40:15.962Z,63.15
2022-08-25T08:41:15.926Z,64.93
2022-08-25T08:42:16.902Z,65.00
2022-08-25T08:43:18.363Z,65.89
2022-08-25T08:44:15.942Z,64.73
2022-08-25T08:45:15.953Z,63.94
2022-08-25T08:46:16.052Z,64.14
2022-08-25T08:47:15.960Z,64.34
2022-08-25T08:48:15.968Z,63.15
2022-08-25T08:49:15.974Z,63.64
2022-08-25T08:50:21.642Z,65.53
2022-08-25T08:51:15.982Z,66.42
2022-08-25T08:52:15.990Z,65.23
2022-08-25T08:53:15.997Z,66.91
2022-08-25T08:54:16.671Z,65.82
2022-08-25T08:55:16.012Z,65.33
2022-08-25T08:56:16.050Z,66.42
2022-08-25T08:57:16.024Z,65.92
2022-08-25T08:58:16.024Z,65.72
2022-08-25T08:59:16.042Z,63.54
2022-08-25T09:00:16.038Z,64.90
2022-08-25T09:01:16.078Z,65.79
2022-08-25T09:02:16.047Z,64.23
2022-08-25T09:03:16.077Z,64.83
2022-08-25T09:04:16.059Z,65.09
2022-08-25T09:05:16.069Z,65.92
2022-08-25T09:06:16.070Z,63.24
2022-08-25T09:07:16.184Z,64.31
2022-08-25T09:08:20.191Z,65.00
2022-08-25T09:09:16.101Z,64.20
2022-08-25T09:10:16.217Z,63.81
2022-08-25T09:11:16.157Z,65.30
2022-08-25T09:12:18.091Z,64.11
2022-08-25T09:13:16.113Z,64.50
2022-08-25T09:14:16.114Z,64.01
2022-08-25T09:15:16.121Z,63.21
2022-08-25T09:16:20.652Z,61.83
2022-08-25T09:17:16.133Z,64.17
2022-08-25T09:18:16.141Z,63.39
2022-08-25T09:19:21.322Z,63.12
2022-08-25T09:20:18.719Z,62.62
2022-08-25T09:21:16.160Z,62.62
2022-08-25T09:22:33.829Z,62.72
2022-08-25T09:23:16.169Z,63.71
2022-08-25T09:24:16.172Z,63.31
2022-08-25T09:25:21.966Z,64.20
2022-08-25T09:26:16.180Z,63.12
2022-08-25T09:27:16.187Z,64.70
2022-08-25T09:28:16.197Z,64.73
2022-08-25T09:29:17.102Z,62.72
2022-08-25T09:30:16.198Z,63.21
2022-08-25T09:31:16.283Z,64.60
2022-08-25T09:32:16.211Z,64.60
2022-08-25T09:33:16.254Z,60.51
2022-08-25T09:34:16.240Z,61.99
2022-08-25T09:35:16.230Z,62.59
2022-08-25T09:36:16.237Z,63.09
2022-08-25T09:37:16.243Z,62.69
2022-08-25T09:38:16.247Z,63.78
2022-08-25T09:39:16.254Z,62.99
2022-08-25T09:40:16.285Z,62.79
2022-08-25T09:41:16.262Z,62.69
2022-08-25T09:42:16.261Z,63.02
2022-08-25T09:43:16.271Z,64.90
2022-08-25T09:44:16.273Z,64.31
2022-08-25T09:45:16.281Z,64.80
2022-08-25T09:46:16.321Z,63.78
2022-08-25T09:47:16.292Z,63.28
2022-08-25T09:48:16.294Z,62.99
2022-08-25T09:49:16.301Z,62.85
2022-08-25T09:50:18.589Z,64.94
2022-08-25T09:51:16.320Z,63.45
2022-08-25T09:52:16.318Z,61.96
2022-08-25T09:53:18.657Z,62.04
2022-08-25T09:54:16.323Z,62.33
2022-08-25T09:55:16.333Z,60.85
2022-08-25T09:56:16.336Z,60.45
2022-08-25T09:57:16.342Z,61.21
2022-08-25T09:58:16.346Z,59.46
2022-08-25T09:59:16.354Z,60.03
2022-08-25T10:00:16.358Z,61.91
2022-08-25T10:01:16.442Z,60.65
2022-08-25T10:02:16.369Z,61.34
2022-08-25T10:03:16.375Z,62.13
2022-08-25T10:04:20.784Z,59.76
2022-08-25T10:05:16.483Z,60.45
2022-08-25T10:06:16.387Z,60.75
2022-08-25T10:07:16.396Z,60.19
2022-08-25T10:08:16.412Z,61.87
2022-08-25T10:09:16.403Z,62.96
2022-08-25T10:10:16.407Z,61.77
2022-08-25T10:11:16.414Z,62.07
2022-08-25T10:12:16.418Z,61.96
2022-08-25T10:13:16.429Z,63.28
2022-08-25T10:14:16.438Z,62.56
2022-08-25T10:15:16.438Z,62.69
2022-08-25T10:16:20.286Z,62.69
2022-08-25T10:17:16.450Z,62.88
2022-08-25T10:18:16.450Z,62.99
2022-08-25T10:19:16.458Z,62.69
2022-08-25T10:20:16.472Z,63.09
2022-08-25T10:21:16.467Z,61.40
2022-08-25T10:22:16.471Z,61.90
2022-08-25T10:23:16.477Z,61.73
2022-08-25T10:24:16.482Z,62.42
2022-08-25T10:25:16.491Z,63.31
2022-08-25T10:26:16.491Z,63.21
2022-08-25T10:27:16.509Z,62.62
2022-08-25T10:28:16.505Z,62.82
2022-08-25T10:29:16.512Z,62.10
2022-08-25T10:30:16.515Z,62.39
2022-08-25T10:31:16.631Z,62.39
2022-08-25T10:32:16.523Z,63.02
2022-08-25T10:33:17.584Z,63.02
2022-08-25T10:34:16.535Z,63.02
2022-08-25T10:35:16.694Z,63.71
2022-08-25T10:36:16.548Z,61.73
2022-08-25T10:37:16.554Z,62.02
2022-08-25T10:38:21.481Z,63.12
2022-08-25T10:39:34.309Z,61.00
2022-08-25T10:40:17.078Z,60.71
2022-08-25T10:41:16.572Z,61.87
2022-08-25T10:42:16.586Z,61.99
2022-08-25T10:43:16.583Z,62.49
2022-08-25T10:44:16.715Z,62.59
2022-08-25T10:45:18.186Z,61.87
2022-08-25T10:46:16.620Z,62.49
2022-08-25T10:47:16.618Z,61.70
2022-08-25T10:48:16.611Z,61.99
2022-08-25T10:49:16.616Z,61.21
2022-08-25T10:50:16.622Z,60.21
2022-08-25T10:51:20.551Z,58.53
2022-08-25T10:52:16.633Z,58.50
2022-08-25T10:53:16.951Z,59.69
2022-08-25T10:54:16.643Z,59.39
2022-08-25T10:55:16.650Z,58.60
2022-08-25T10:56:16.655Z,59.59
2022-08-25T10:57:16.656Z,61.18
2022-08-25T10:58:16.660Z,60.58
2022-08-25T10:59:16.670Z,62.36
2022-08-25T11:00:16.674Z,61.87
2022-08-25T11:01:16.722Z,59.72
2022-08-25T11:02:16.689Z,60.51
2022-08-25T11:03:16.688Z,62.29
2022-08-25T11:04:16.693Z,60.71
2022-08-25T11:05:16.699Z,60.91
2022-08-25T11:06:16.711Z,61.23
2022-08-25T11:07:16.708Z,60.74
2022-08-25T11:08:16.716Z,60.54
2022-08-25T11:09:16.721Z,62.82
2022-08-25T11:10:16.728Z,60.94
2022-08-25T11:11:16.730Z,60.64
2022-08-25T11:12:16.739Z,60.05
2022-08-25T11:13:16.747Z,60.74
2022-08-25T11:14:16.748Z,61.13
2022-08-25T11:15:16.761Z,62.32
2022-08-25T11:16:19.129Z,60.54
2022-08-25T11:17:16.989Z,59.75
2022-08-25T11:18:16.768Z,58.56
2022-08-25T11:19:16.776Z,60.34
2022-08-25T11:20:20.542Z,58.73
2022-08-25T11:21:16.790Z,58.03
2022-08-25T11:22:19.253Z,58.80
2022-08-25T11:23:16.793Z,59.19
2022-08-25T11:24:16.803Z,58.70
2022-08-25T11:25:16.813Z,58.70
2022-08-25T11:26:16.830Z,58.97
2022-08-25T11:27:17.420Z,59.09
2022-08-25T11:28:16.831Z,58.97
2022-08-25T11:29:16.830Z,59.27
2022-08-25T11:30:16.833Z,60.19
2022-08-25T11:31:16.877Z,59.39
2022-08-25T11:32:16.846Z,58.90
2022-08-25T11:33:16.848Z,58.70
2022-08-25T11:34:19.483Z,59.39
2022-08-25T11:35:16.864Z,60.81
2022-08-25T11:36:16.868Z,59.59
2022-08-25T11:37:16.873Z,59.62
2022-08-25T11:38:16.878Z,59.92
2022-08-25T11:39:16.886Z,58.23
2022-08-25T11:40:17.148Z,58.40
2022-08-25T11:41:16.901Z,59.09
2022-08-25T11:42:16.902Z,59.09
2022-08-25T11:43:16.904Z,58.20
2022-08-25T11:44:16.908Z,56.79
2022-08-25T11:45:16.914Z,58.87
2022-08-25T11:46:16.964Z,57.39
2022-08-25T11:47:21.134Z,55.47
2022-08-25T11:48:16.947Z,56.86
2022-08-25T11:49:16.940Z,56.27
2022-08-25T11:50:16.944Z,56.17
2022-08-25T11:51:16.949Z,56.37
2022-08-25T11:52:16.956Z,56.27
2022-08-25T11:53:16.957Z,55.55
2022-08-25T11:54:16.963Z,55.87
2022-08-25T11:55:16.970Z,56.07
2022-08-25T11:56:16.972Z,56.37
2022-08-25T11:57:16.980Z,54.88
2022-08-25T11:58:16.985Z,53.77
2022-08-25T11:59:16.990Z,56.46
2022-08-25T12:00:16.996Z,54.98
2022-08-25T12:01:17.003Z,55.18
2022-08-25T12:02:17.013Z,54.79
2022-08-25T12:03:17.023Z,55.08
2022-08-25T12:04:17.081Z,56.76
2022-08-25T12:05:17.192Z,54.59
2022-08-25T12:06:17.033Z,56.46
2022-08-25T12:07:17.034Z,56.86
2022-08-25T12:08:17.039Z,57.75
2022-08-25T12:09:17.045Z,56.79
2022-08-25T12:10:17.051Z,55.11
2022-08-25T12:11:17.056Z,54.52
2022-08-25T12:12:17.062Z,55.90
2022-08-25T12:13:17.067Z,56.62
2022-08-25T12:14:17.070Z,55.30
2022-08-25T12:15:17.081Z,54.71
2022-08-25T12:16:17.135Z,54.81
2022-08-25T12:17:17.089Z,54.91
2022-08-25T12:18:18.743Z,57.29
2022-08-25T12:19:17.113Z,56.49
2022-08-25T12:20:17.108Z,53.82
2022-08-25T12:21:17.113Z,53.92
2022-08-25T12:22:17.115Z,53.99
2022-08-25T12:23:17.123Z,54.88
2022-08-25T12:24:17.132Z,55.87
2022-08-25T12:25:17.136Z,56.46
2022-08-25T12:26:17.139Z,56.07
2022-08-25T12:27:17.143Z,58.15
2022-08-25T12:28:17.156Z,58.74
2022-08-25T12:29:17.168Z,56.10
2022-08-25T12:30:20.671Z,56.37
2022-08-25T12:31:17.273Z,54.12
2022-08-25T12:32:17.174Z,53.80
2022-08-25T12:33:17.180Z,54.81
2022-08-25T12:34:17.183Z,56.59
2022-08-25T12:35:17.263Z,56.49
2022-08-25T12:36:17.194Z,56.20
2022-08-25T12:37:17.207Z,56.13
2022-08-25T12:38:17.206Z,56.10
2022-08-25T12:39:17.210Z,56.82
2022-08-25T12:40:17.367Z,56.32
2022-08-25T12:41:17.226Z,56.32
2022-08-25T12:42:19.036Z,55.04
2022-08-25T12:43:19.594Z,56.42
2022-08-25T12:44:17.242Z,56.69
2022-08-25T12:45:17.245Z,56.23
2022-08-25T12:46:17.317Z,56.32
2022-08-25T12:47:17.275Z,56.79
2022-08-25T12:48:17.267Z,56.42
2022-08-25T12:49:17.268Z,55.63
2022-08-25T12:50:17.275Z,55.60
2022-08-25T12:51:17.276Z,56.20
2022-08-25T12:52:17.283Z,54.61
2022-08-25T12:53:17.289Z,55.30